createdAt,value
2023-05-02T00:00:45.380Z,526.00
2023-05-02T00:01:45.421Z,528.00
2023-05-02T00:02:45.633Z,525.00
2023-05-02T00:03:45.624Z,526.00
2023-05-02T00:04:45.486Z,527.00
2023-05-02T00:05:45.490Z,520.00
2023-05-02T00:06:45.574Z,524.00
2023-05-02T00:07:45.544Z,528.00
2023-05-02T00:08:45.587Z,527.00
2023-05-02T00:09:45.608Z,524.00
2023-05-02T00:10:45.637Z,525.00
2023-05-02T00:11:45.647Z,526.00
2023-05-02T00:12:45.671Z,524.00
2023-05-02T00:13:45.688Z,522.00
2023-05-02T00:14:45.708Z,526.00
2023-05-02T00:15:45.732Z,523.00
2023-05-02T00:16:45.775Z,524.00
2023-05-02T00:17:45.818Z,526.00
2023-05-02T00:18:45.780Z,522.00
2023-05-02T00:19:45.809Z,522.00
2023-05-02T00:20:45.850Z,523.00
2023-05-02T00:21:45.860Z,521.00
2023-05-02T00:22:45.958Z,516.00
2023-05-02T00:23:45.897Z,519.00
2023-05-02T00:24:45.928Z,519.00
2023-05-02T00:25:45.966Z,522.00
2023-05-02T00:26:45.975Z,520.00
2023-05-02T00:27:45.996Z,524.00
2023-05-02T00:28:46.030Z,524.00
2023-05-02T00:29:46.037Z,520.00
2023-05-02T00:30:46.133Z,522.00
2023-05-02T00:31:46.081Z,521.00
2023-05-02T00:32:46.119Z,517.00
2023-05-02T00:33:46.132Z,519.00
2023-05-02T00:34:46.169Z,521.00
2023-05-02T00:35:46.196Z,522.00
2023-05-02T00:36:46.235Z,521.00
2023-05-02T00:37:46.254Z,519.00
2023-05-02T00:38:46.285Z,521.00
2023-05-02T00:39:46.332Z,523.00
2023-05-02T00:40:46.364Z,519.00
2023-05-02T00:41:46.351Z,522.00
2023-05-02T00:42:46.382Z,521.00
2023-05-02T00:43:46.401Z,519.00
2023-05-02T00:44:46.421Z,521.00
2023-05-02T00:45:46.602Z,518.00
2023-05-02T00:46:46.585Z,522.00
2023-05-02T00:47:46.521Z,517.00
2023-05-02T00:48:46.511Z,519.00
2023-05-02T00:49:46.552Z,520.00
2023-05-02T00:50:46.582Z,518.00
2023-05-02T00:51:46.606Z,521.00
2023-05-02T00:52:46.625Z,517.00
2023-05-02T00:53:46.646Z,519.00
2023-05-02T00:54:46.675Z,516.00
2023-05-02T00:55:46.705Z,521.00
2023-05-02T00:56:46.742Z,519.00
2023-05-02T00:57:46.760Z,519.00
2023-05-02T00:58:46.785Z,522.00
2023-05-02T00:59:46.829Z,519.00
2023-05-02T01:00:46.851Z,518.00
2023-05-02T01:01:46.911Z,521.00
2023-05-02T01:02:46.946Z,519.00
2023-05-02T01:03:47.092Z,517.00
2023-05-02T01:04:46.960Z,518.00
2023-05-02T01:05:46.986Z,515.00
2023-05-02T01:06:47.226Z,520.00
2023-05-02T01:07:47.045Z,517.00
2023-05-02T01:08:47.068Z,519.00
2023-05-02T01:09:47.101Z,513.00
2023-05-02T01:10:47.113Z,518.00
2023-05-02T01:11:47.149Z,521.00
2023-05-02T01:12:47.182Z,514.00
2023-05-02T01:13:47.207Z,517.00
2023-05-02T01:14:47.232Z,519.00
2023-05-02T01:15:47.279Z,523.00
2023-05-02T01:16:47.281Z,522.00
2023-05-02T01:17:47.349Z,519.00
2023-05-02T01:18:47.330Z,520.00
2023-05-02T01:19:47.349Z,523.00
2023-05-02T01:20:47.378Z,518.00
2023-05-02T01:21:47.418Z,520.00
2023-05-02T01:22:47.521Z,520.00
2023-05-02T01:23:47.475Z,519.00
2023-05-02T01:24:47.511Z,520.00
2023-05-02T01:25:47.544Z,519.00
2023-05-02T01:26:47.578Z,519.00
2023-05-02T01:27:47.607Z,520.00
2023-05-02T01:28:47.637Z,514.00
2023-05-02T01:29:47.664Z,516.00
2023-05-02T01:30:47.688Z,509.00
2023-05-02T01:31:47.757Z,516.00
2023-05-02T01:32:47.825Z,517.00
2023-05-02T01:33:47.877Z,520.00
2023-05-02T01:34:47.823Z,514.00
2023-05-02T01:35:47.844Z,517.00
2023-05-02T01:36:47.876Z,516.00
2023-05-02T01:37:47.914Z,513.00
2023-05-02T01:38:47.955Z,518.00
2023-05-02T01:39:47.966Z,515.00
2023-05-02T01:40:48.013Z,516.00
2023-05-02T01:41:48.042Z,516.00
2023-05-02T01:42:48.049Z,523.00
2023-05-02T01:43:48.120Z,519.00
2023-05-02T01:44:48.139Z,517.00
2023-05-02T01:45:48.134Z,516.00
2023-05-02T01:46:48.208Z,516.00
2023-05-02T01:47:48.267Z,516.00
2023-05-02T01:48:48.221Z,515.00
2023-05-02T01:49:48.249Z,517.00
2023-05-02T01:50:48.278Z,517.00
2023-05-02T01:51:48.325Z,511.00
2023-05-02T01:52:48.345Z,520.00
2023-05-02T01:53:48.376Z,516.00
2023-05-02T01:54:48.390Z,513.00
2023-05-02T01:55:48.428Z,514.00
2023-05-02T01:56:48.465Z,510.00
2023-05-02T01:57:48.493Z,514.00
2023-05-02T01:58:48.518Z,515.00
2023-05-02T01:59:48.575Z,519.00
2023-05-02T02:00:48.612Z,515.00
2023-05-02T02:01:48.627Z,515.00
2023-05-02T02:02:48.742Z,517.00
2023-05-02T02:03:48.721Z,517.00
2023-05-02T02:04:48.858Z,517.00
2023-05-02T02:05:48.746Z,514.00
2023-05-02T02:06:48.892Z,513.00
2023-05-02T02:07:48.789Z,516.00
2023-05-02T02:08:48.814Z,514.00
2023-05-02T02:09:48.851Z,514.00
2023-05-02T02:10:49.005Z,513.00
2023-05-02T02:11:48.913Z,516.00
2023-05-02T02:12:48.927Z,513.00
2023-05-02T02:13:48.956Z,518.00
2023-05-02T02:14:48.972Z,514.00
2023-05-02T02:15:49.031Z,512.00
2023-05-02T02:16:49.095Z,518.00
2023-05-02T02:17:49.114Z,514.00
2023-05-02T02:18:49.092Z,516.00
2023-05-02T02:19:49.118Z,514.00
2023-05-02T02:20:49.152Z,515.00
2023-05-02T02:21:49.181Z,515.00
2023-05-02T02:22:49.210Z,514.00
2023-05-02T02:23:49.257Z,513.00
2023-05-02T02:24:49.256Z,510.00
2023-05-02T02:25:49.305Z,512.00
2023-05-02T02:26:49.299Z,511.00
2023-05-02T02:27:49.342Z,518.00
2023-05-02T02:28:49.355Z,511.00
2023-05-02T02:29:49.375Z,511.00
2023-05-02T02:30:49.426Z,513.00
2023-05-02T02:31:49.423Z,511.00
2023-05-02T02:32:49.521Z,511.00
2023-05-02T02:33:49.484Z,511.00
2023-05-02T02:34:49.511Z,511.00
2023-05-02T02:35:49.529Z,514.00
2023-05-02T02:36:49.557Z,512.00
2023-05-02T02:37:49.579Z,510.00
2023-05-02T02:38:49.624Z,515.00
2023-05-02T02:39:49.637Z,512.00
2023-05-02T02:40:49.684Z,510.00
2023-05-02T02:41:49.693Z,512.00
2023-05-02T02:42:49.705Z,511.00
2023-05-02T02:43:49.719Z,515.00
2023-05-02T02:44:49.751Z,509.00
2023-05-02T02:45:49.780Z,509.00
2023-05-02T02:46:49.851Z,512.00
2023-05-02T02:47:49.873Z,510.00
2023-05-02T02:48:49.838Z,512.00
2023-05-02T02:49:49.902Z,511.00
2023-05-02T02:50:49.894Z,514.00
2023-05-02T02:51:49.921Z,511.00
2023-05-02T02:52:49.941Z,514.00
2023-05-02T02:53:49.966Z,509.00
2023-05-02T02:54:49.991Z,506.00
2023-05-02T02:55:50.010Z,512.00
2023-05-02T02:56:50.057Z,510.00
2023-05-02T02:57:50.065Z,511.00
2023-05-02T02:58:50.111Z,510.00
2023-05-02T02:59:50.119Z,514.00
2023-05-02T03:00:50.128Z,513.00
2023-05-02T03:01:50.206Z,508.00
2023-05-02T03:02:50.206Z,513.00
2023-05-02T03:03:50.229Z,509.00
2023-05-02T03:04:50.224Z,508.00
2023-05-02T03:05:50.253Z,509.00
2023-05-02T03:06:50.356Z,511.00
2023-05-02T03:07:50.315Z,503.00
2023-05-02T03:08:50.352Z,510.00
2023-05-02T03:09:50.372Z,511.00
2023-05-02T03:10:50.391Z,512.00
2023-05-02T03:11:50.411Z,509.00
2023-05-02T03:12:50.440Z,515.00
2023-05-02T03:13:50.463Z,509.00
2023-05-02T03:14:50.490Z,512.00
2023-05-02T03:15:50.550Z,511.00
2023-05-02T03:16:50.548Z,510.00
2023-05-02T03:17:50.610Z,504.00
2023-05-02T03:18:50.599Z,508.00
2023-05-02T03:19:50.628Z,507.00
2023-05-02T03:20:50.652Z,508.00
2023-05-02T03:21:50.692Z,508.00
2023-05-02T03:22:50.723Z,507.00
2023-05-02T03:23:50.757Z,512.00
2023-05-02T03:24:50.789Z,512.00
2023-05-02T03:25:50.823Z,511.00
2023-05-02T03:26:50.852Z,508.00
2023-05-02T03:27:50.885Z,510.00
2023-05-02T03:28:50.919Z,510.00
2023-05-02T03:29:50.950Z,507.00
2023-05-02T03:30:50.980Z,507.00
2023-05-02T03:31:51.066Z,507.00
2023-05-02T03:32:51.113Z,509.00
2023-05-02T03:33:51.076Z,507.00
2023-05-02T03:34:51.123Z,507.00
2023-05-02T03:35:51.118Z,507.00
2023-05-02T03:36:51.140Z,508.00
2023-05-02T03:37:51.143Z,509.00
2023-05-02T03:38:51.153Z,509.00
2023-05-02T03:39:51.150Z,508.00
2023-05-02T03:40:51.150Z,511.00
2023-05-02T03:41:51.162Z,511.00
2023-05-02T03:42:51.167Z,510.00
2023-05-02T03:43:51.178Z,511.00
2023-05-02T03:44:51.172Z,506.00
2023-05-02T03:45:51.184Z,510.00
2023-05-02T03:46:51.250Z,510.00
2023-05-02T03:47:51.213Z,506.00
2023-05-02T03:48:51.208Z,510.00
2023-05-02T03:49:51.208Z,512.00
2023-05-02T03:50:51.222Z,509.00
2023-05-02T03:51:51.227Z,509.00
2023-05-02T03:52:51.228Z,508.00
2023-05-02T03:53:51.236Z,505.00
2023-05-02T03:54:51.252Z,508.00
2023-05-02T03:55:51.244Z,511.00
2023-05-02T03:56:51.269Z,512.00
2023-05-02T03:57:51.255Z,509.00
2023-05-02T03:58:51.392Z,506.00
2023-05-02T03:59:51.306Z,508.00
2023-05-02T04:00:51.341Z,507.00
2023-05-02T04:01:51.422Z,511.00
2023-05-02T04:02:51.541Z,506.00
2023-05-02T04:03:51.472Z,505.00
2023-05-02T04:04:51.482Z,512.00
2023-05-02T04:05:51.533Z,507.00
2023-05-02T04:06:51.666Z,508.00
2023-05-02T04:07:51.566Z,509.00
2023-05-02T04:08:51.601Z,511.00
2023-05-02T04:09:51.641Z,511.00
2023-05-02T04:10:51.663Z,508.00
2023-05-02T04:11:51.686Z,506.00
2023-05-02T04:12:51.710Z,507.00
2023-05-02T04:13:53.439Z,502.00
2023-05-02T04:14:51.784Z,505.00
2023-05-02T04:15:51.805Z,507.00
2023-05-02T04:16:51.881Z,503.00
2023-05-02T04:17:51.896Z,513.00
2023-05-02T04:18:51.888Z,507.00
2023-05-02T04:19:51.901Z,504.00
2023-05-02T04:20:51.929Z,507.00
2023-05-02T04:21:51.957Z,509.00
2023-05-02T04:22:51.985Z,509.00
2023-05-02T04:23:52.008Z,507.00
2023-05-02T04:24:52.039Z,510.00
2023-05-02T04:25:52.062Z,513.00
2023-05-02T04:26:52.094Z,507.00
2023-05-02T04:27:52.128Z,507.00
2023-05-02T04:28:52.163Z,505.00
2023-05-02T04:29:52.192Z,508.00
2023-05-02T04:30:52.250Z,511.00
2023-05-02T04:31:52.232Z,506.00
2023-05-02T04:32:52.333Z,504.00
2023-05-02T04:33:52.283Z,508.00
2023-05-02T04:34:52.342Z,512.00
2023-05-02T04:35:52.365Z,505.00
2023-05-02T04:36:52.388Z,508.00
2023-05-02T04:37:52.417Z,508.00
2023-05-02T04:38:52.431Z,507.00
2023-05-02T04:39:52.470Z,500.00
2023-05-02T04:40:52.502Z,507.00
2023-05-02T04:41:52.534Z,507.00
2023-05-02T04:42:52.558Z,506.00
2023-05-02T04:43:52.580Z,506.00
2023-05-02T04:44:52.605Z,507.00
2023-05-02T04:45:52.687Z,509.00
2023-05-02T04:46:52.686Z,508.00
2023-05-02T04:47:52.758Z,506.00
2023-05-02T04:48:52.706Z,507.00
2023-05-02T04:49:52.748Z,508.00
2023-05-02T04:50:52.772Z,509.00
2023-05-02T04:51:52.802Z,508.00
2023-05-02T04:52:52.830Z,506.00
2023-05-02T04:53:52.856Z,507.00
2023-05-02T04:54:52.902Z,510.00
2023-05-02T04:55:53.252Z,507.00
2023-05-02T04:56:52.956Z,508.00
2023-05-02T04:57:53.735Z,506.00
2023-05-02T04:58:53.007Z,508.00
2023-05-02T04:59:53.041Z,504.00
2023-05-02T05:00:53.069Z,504.00
2023-05-02T05:01:53.137Z,505.00
2023-05-02T05:02:53.188Z,506.00
2023-05-02T05:03:53.223Z,507.00
2023-05-02T05:04:53.263Z,504.00
2023-05-02T05:05:53.204Z,508.00
2023-05-02T05:06:53.313Z,505.00
2023-05-02T05:07:53.263Z,502.00
2023-05-02T05:08:53.297Z,504.00
2023-05-02T05:09:53.620Z,509.00
2023-05-02T05:10:53.362Z,513.00
2023-05-02T05:11:53.398Z,508.00
2023-05-02T05:12:53.437Z,510.00
2023-05-02T05:13:53.452Z,506.00
2023-05-02T05:14:53.481Z,507.00
2023-05-02T05:15:53.520Z,511.00
2023-05-02T05:16:53.555Z,509.00
2023-05-02T05:17:53.596Z,511.00
2023-05-02T05:18:53.618Z,503.00
2023-05-02T05:19:53.669Z,504.00
2023-05-02T05:20:53.694Z,507.00
2023-05-02T05:21:53.717Z,505.00
2023-05-02T05:22:53.754Z,512.00
2023-05-02T05:23:53.801Z,513.00
2023-05-02T05:24:53.841Z,511.00
2023-05-02T05:25:53.837Z,520.00
2023-05-02T05:26:53.842Z,532.00
2023-05-02T05:27:53.868Z,549.00
2023-05-02T05:28:53.876Z,568.00
2023-05-02T05:29:53.916Z,578.00
2023-05-02T05:30:53.914Z,598.00
2023-05-02T05:31:53.960Z,618.00
2023-05-02T05:32:54.703Z,633.00
2023-05-02T05:33:54.049Z,631.00
2023-05-02T05:34:54.053Z,657.00
2023-05-02T05:35:54.110Z,676.00
2023-05-02T05:36:54.172Z,697.00
2023-05-02T05:37:54.237Z,727.00
2023-05-02T05:38:54.293Z,759.00
2023-05-02T05:39:54.357Z,790.00
2023-05-02T05:40:54.404Z,825.00
2023-05-02T05:41:54.452Z,843.00
2023-05-02T05:42:54.497Z,871.00
2023-05-02T05:43:54.540Z,908.00
2023-05-02T05:44:54.590Z,959.00
2023-05-02T05:45:54.628Z,1015.00
2023-05-02T05:46:54.760Z,1059.00
2023-05-02T05:47:54.727Z,1071.00
2023-05-02T05:48:54.708Z,1117.00
2023-05-02T05:49:54.750Z,1147.00
2023-05-02T05:50:54.758Z,1182.00
2023-05-02T05:51:54.770Z,1212.00
2023-05-02T05:52:54.790Z,1244.00
2023-05-02T05:53:54.821Z,1284.00
2023-05-02T05:54:54.893Z,1302.00
2023-05-02T05:55:54.823Z,1323.00
2023-05-02T05:56:54.848Z,1359.00
2023-05-02T05:57:54.844Z,1383.00
2023-05-02T05:58:54.912Z,1413.00
2023-05-02T05:59:54.858Z,1434.00
2023-05-02T06:00:54.858Z,1482.00
2023-05-02T06:01:54.872Z,1527.00
2023-05-02T06:02:54.945Z,1531.00
2023-05-02T06:03:54.885Z,1543.00
2023-05-02T06:04:54.906Z,1582.00
2023-05-02T06:05:54.869Z,1622.00
2023-05-02T06:06:54.987Z,1639.00
2023-05-02T06:07:54.852Z,1691.00
2023-05-02T06:08:54.845Z,1694.00
2023-05-02T06:09:54.828Z,1706.00
2023-05-02T06:10:54.824Z,1734.00
2023-05-02T06:11:54.830Z,1799.00
2023-05-02T06:12:55.280Z,1885.00
2023-05-02T06:13:54.818Z,1891.00
2023-05-02T06:14:54.785Z,1925.00
2023-05-02T06:15:54.782Z,1925.00
2023-05-02T06:16:54.775Z,1933.00
2023-05-02T06:17:54.777Z,1936.00
2023-05-02T06:18:54.739Z,1960.00
2023-05-02T06:19:54.727Z,1962.00
2023-05-02T06:20:54.702Z,1972.00
2023-05-02T06:21:54.674Z,1982.00
2023-05-02T06:22:54.653Z,1997.00
2023-05-02T06:23:54.647Z,2020.00
2023-05-02T06:24:54.684Z,2046.00
2023-05-02T06:25:54.629Z,2027.00
2023-05-02T06:26:54.645Z,2003.00
2023-05-02T06:27:54.698Z,1996.00
2023-05-02T06:28:54.598Z,2012.00
2023-05-02T06:29:54.598Z,2026.00
2023-05-02T06:30:54.571Z,2027.00
2023-05-02T06:31:54.590Z,2028.00
2023-05-02T06:32:54.707Z,2024.00
2023-05-02T06:33:55.196Z,2027.00
2023-05-02T06:34:54.549Z,2005.00
2023-05-02T06:35:54.519Z,2007.00
2023-05-02T06:36:54.502Z,2011.00
2023-05-02T06:37:54.494Z,2008.00
2023-05-02T06:38:55.195Z,2018.00
2023-05-02T06:39:54.504Z,1998.00
2023-05-02T06:40:54.489Z,1998.00
2023-05-02T06:41:54.477Z,1997.00
2023-05-02T06:42:54.483Z,2007.00
2023-05-02T06:43:54.473Z,2008.00
2023-05-02T06:44:54.470Z,2007.00
2023-05-02T06:45:54.472Z,2004.00
2023-05-02T06:46:54.463Z,1985.00
2023-05-02T06:47:54.481Z,1989.00
2023-05-02T06:48:54.444Z,1983.00
2023-05-02T06:49:54.406Z,1990.00
2023-05-02T06:50:54.423Z,1980.00
2023-05-02T06:51:54.397Z,1963.00
2023-05-02T06:52:54.387Z,1965.00
2023-05-02T06:53:54.376Z,1972.00
2023-05-02T06:54:54.359Z,1968.00
2023-05-02T06:55:54.383Z,1948.00
2023-05-02T06:56:54.422Z,1949.00
2023-05-02T06:57:54.465Z,1928.00
2023-05-02T06:58:54.567Z,1938.00
2023-05-02T06:59:54.530Z,1949.00
2023-05-02T07:00:54.625Z,1922.00
2023-05-02T07:01:54.613Z,1921.00
2023-05-02T07:02:54.662Z,1922.00
2023-05-02T07:03:54.692Z,1924.00
2023-05-02T07:04:54.615Z,1927.00
2023-05-02T07:05:54.617Z,1916.00
2023-05-02T07:06:54.661Z,1903.00
2023-05-02T07:07:54.616Z,1892.00
2023-05-02T07:08:54.605Z,1920.00
2023-05-02T07:09:54.618Z,1878.00
2023-05-02T07:10:54.598Z,1883.00
2023-05-02T07:11:54.613Z,1880.00
2023-05-02T07:12:54.606Z,1869.00
2023-05-02T07:13:54.617Z,1867.00
2023-05-02T07:14:54.689Z,1867.00
2023-05-02T07:15:54.724Z,1865.00
2023-05-02T07:16:54.824Z,1866.00
2023-05-02T07:17:54.835Z,1855.00
2023-05-02T07:18:54.923Z,1839.00
2023-05-02T07:19:54.902Z,1828.00
2023-05-02T07:20:54.956Z,1826.00
2023-05-02T07:21:55.033Z,1828.00
2023-05-02T07:22:54.994Z,1830.00
2023-05-02T07:23:54.995Z,1843.00
2023-05-02T07:24:55.027Z,1842.00
2023-05-02T07:25:54.984Z,1859.00
2023-05-02T07:26:55.001Z,1873.00
2023-05-02T07:27:54.997Z,1895.00
2023-05-02T07:28:54.982Z,1904.00
2023-05-02T07:29:54.980Z,1925.00
2023-05-02T07:30:54.975Z,1936.00
2023-05-02T07:31:55.026Z,1938.00
2023-05-02T07:32:55.838Z,1945.00
2023-05-02T07:33:54.958Z,1961.00
2023-05-02T07:34:54.958Z,1984.00
2023-05-02T07:35:54.941Z,2035.00
2023-05-02T07:36:54.933Z,1943.00
2023-05-02T07:37:54.924Z,1960.00
2023-05-02T07:38:54.933Z,1992.00
2023-05-02T07:39:54.935Z,2067.00
2023-05-02T07:40:54.927Z,2136.00
2023-05-02T07:41:54.889Z,2175.00
2023-05-02T07:42:54.885Z,2220.00
2023-05-02T07:43:54.876Z,2224.00
2023-05-02T07:44:55.888Z,2213.00
2023-05-02T07:45:54.932Z,2237.00
2023-05-02T07:46:54.856Z,2211.00
2023-05-02T07:47:54.842Z,2224.00
2023-05-02T07:48:54.826Z,2232.00
2023-05-02T07:49:54.813Z,2274.00
2023-05-02T07:50:54.801Z,2262.00
2023-05-02T07:51:54.794Z,2268.00
2023-05-02T07:52:54.784Z,2284.00
2023-05-02T07:53:54.778Z,2303.00
2023-05-02T07:54:54.765Z,2309.00
2023-05-02T07:55:54.789Z,2325.00
2023-05-02T07:56:55.803Z,2382.00
2023-05-02T07:57:54.856Z,2382.00
2023-05-02T07:58:54.900Z,2407.00
2023-05-02T07:59:54.910Z,2402.00
2023-05-02T08:00:54.939Z,2416.00
2023-05-02T08:01:54.958Z,2382.00
2023-05-02T08:02:55.113Z,2170.00
2023-05-02T08:03:55.967Z,1857.00
2023-05-02T08:04:55.034Z,1716.00
2023-05-02T08:05:55.028Z,1574.00
2023-05-02T08:06:55.135Z,1451.00
2023-05-02T08:07:54.995Z,1374.00
2023-05-02T08:08:54.990Z,1301.00
2023-05-02T08:09:55.804Z,2248.00
2023-05-02T08:10:54.996Z,1694.00
2023-05-02T08:11:55.005Z,1523.00
2023-05-02T08:12:55.827Z,1368.00
2023-05-02T08:13:55.011Z,1299.00
2023-05-02T08:14:54.995Z,1316.00
2023-05-02T08:15:55.376Z,1353.00
2023-05-02T08:16:55.014Z,1270.00
2023-05-02T08:17:55.038Z,1143.00
2023-05-02T08:18:55.061Z,1019.00
2023-05-02T08:19:55.033Z,809.00
2023-05-02T08:20:55.061Z,752.00
2023-05-02T08:21:55.133Z,684.00
2023-05-02T08:22:55.174Z,622.00
2023-05-02T08:23:55.189Z,589.00
2023-05-02T08:24:55.230Z,571.00
2023-05-02T08:25:55.810Z,617.00
2023-05-02T08:26:55.335Z,642.00
2023-05-02T08:27:58.843Z,617.00
2023-05-02T08:28:55.395Z,627.00
2023-05-02T08:29:55.990Z,630.00
2023-05-02T08:30:55.483Z,652.00
2023-05-02T08:31:55.442Z,669.00
2023-05-02T08:32:55.484Z,711.00
2023-05-02T08:33:56.326Z,757.00
2023-05-02T08:34:55.379Z,830.00
2023-05-02T08:35:55.319Z,863.00
2023-05-02T08:36:58.053Z,883.00
2023-05-02T08:37:55.287Z,956.00
2023-05-02T08:38:55.289Z,976.00
2023-05-02T08:39:55.249Z,992.00
2023-05-02T08:40:55.242Z,1024.00
2023-05-02T08:41:55.221Z,1035.00
2023-05-02T08:42:55.215Z,1067.00
2023-05-02T08:43:55.191Z,1081.00
2023-05-02T08:44:55.190Z,1120.00
2023-05-02T08:45:55.167Z,1137.00
2023-05-02T08:46:55.225Z,1163.00
2023-05-02T08:47:55.152Z,1195.00
2023-05-02T08:48:55.121Z,1216.00
2023-05-02T08:49:55.105Z,1279.00
2023-05-02T08:50:55.078Z,1313.00
2023-05-02T08:51:55.045Z,1334.00
2023-05-02T08:52:55.030Z,1354.00
2023-05-02T08:53:55.013Z,1364.00
2023-05-02T08:54:54.996Z,1398.00
2023-05-02T08:55:55.757Z,1430.00
2023-05-02T08:56:54.967Z,1463.00
2023-05-02T08:57:54.934Z,1459.00
2023-05-02T08:58:54.923Z,1497.00
2023-05-02T08:59:54.910Z,1521.00
2023-05-02T09:00:54.942Z,1531.00
2023-05-02T09:01:54.857Z,1606.00
2023-05-02T09:02:54.888Z,1614.00
2023-05-02T09:03:54.856Z,1628.00
2023-05-02T09:04:54.809Z,1662.00
2023-05-02T09:05:54.792Z,1715.00
2023-05-02T09:06:54.815Z,1715.00
2023-05-02T09:07:54.756Z,1721.00
2023-05-02T09:08:54.783Z,1728.00
2023-05-02T09:09:54.707Z,1736.00
2023-05-02T09:10:54.688Z,1748.00
2023-05-02T09:11:54.675Z,1793.00
2023-05-02T09:12:54.649Z,1797.00
2023-05-02T09:13:54.636Z,1823.00
2023-05-02T09:14:55.343Z,1850.00
2023-05-02T09:15:54.837Z,1852.00
2023-05-02T09:16:54.920Z,1750.00
2023-05-02T09:17:54.831Z,1641.00
2023-05-02T09:18:54.782Z,1625.00
2023-05-02T09:19:54.774Z,1535.00
2023-05-02T09:20:54.741Z,1567.00
2023-05-02T09:21:54.737Z,1475.00
2023-05-02T09:22:54.701Z,1278.00
2023-05-02T09:23:54.684Z,1119.00
2023-05-02T09:24:54.660Z,1033.00
2023-05-02T09:25:54.648Z,1189.00
2023-05-02T09:26:54.624Z,1202.00
2023-05-02T09:27:54.600Z,1248.00
2023-05-02T09:28:54.585Z,1308.00
2023-05-02T09:29:54.613Z,1337.00
2023-05-02T09:30:54.693Z,1352.00
2023-05-02T09:31:56.676Z,1358.00
2023-05-02T09:32:54.751Z,1399.00
2023-05-02T09:33:54.764Z,1407.00
2023-05-02T09:34:54.794Z,1437.00
2023-05-02T09:35:54.836Z,1455.00
2023-05-02T09:36:54.985Z,1462.00
2023-05-02T09:37:54.877Z,1496.00
2023-05-02T09:38:54.973Z,1535.00
2023-05-02T09:39:54.935Z,1555.00
2023-05-02T09:40:54.951Z,1562.00
2023-05-02T09:41:55.073Z,1611.00
2023-05-02T09:42:55.023Z,1600.00
2023-05-02T09:43:55.029Z,1650.00
2023-05-02T09:44:55.050Z,1647.00
2023-05-02T09:45:55.089Z,1661.00
2023-05-02T09:46:55.097Z,1694.00
2023-05-02T09:47:55.258Z,1711.00
2023-05-02T09:48:55.096Z,1725.00
2023-05-02T09:49:55.091Z,1797.00
2023-05-02T09:50:55.107Z,1870.00
2023-05-02T09:51:55.106Z,1864.00
2023-05-02T09:52:55.128Z,1874.00
2023-05-02T09:53:55.158Z,1909.00
2023-05-02T09:54:55.116Z,1927.00
2023-05-02T09:55:55.112Z,1928.00
2023-05-02T09:56:55.117Z,1938.00
2023-05-02T09:57:55.854Z,1968.00
2023-05-02T09:58:55.124Z,1998.00
2023-05-02T09:59:55.115Z,2009.00
2023-05-02T10:00:55.118Z,2008.00
2023-05-02T10:01:55.205Z,2003.00
2023-05-02T10:02:55.136Z,2005.00
2023-05-02T10:03:55.069Z,2014.00
2023-05-02T10:04:55.062Z,2041.00
2023-05-02T10:05:55.206Z,2085.00
2023-05-02T10:06:55.009Z,2151.00
2023-05-02T10:07:54.975Z,2169.00
2023-05-02T10:08:55.966Z,2171.00
2023-05-02T10:09:54.911Z,2183.00
2023-05-02T10:10:54.875Z,2166.00
2023-05-02T10:11:54.854Z,2170.00
2023-05-02T10:12:54.853Z,2170.00
2023-05-02T10:13:56.460Z,2171.00
2023-05-02T10:14:54.793Z,2176.00
2023-05-02T10:15:56.432Z,2182.00
2023-05-02T10:16:54.740Z,2183.00
2023-05-02T10:17:54.766Z,2185.00
2023-05-02T10:18:54.749Z,2200.00
2023-05-02T10:19:55.327Z,2194.00
2023-05-02T10:20:54.671Z,2200.00
2023-05-02T10:21:59.374Z,2184.00
2023-05-02T10:22:55.368Z,2186.00
2023-05-02T10:23:54.596Z,2186.00
2023-05-02T10:24:55.371Z,2179.00
2023-05-02T10:25:54.585Z,2186.00
2023-05-02T10:26:56.446Z,2162.00
2023-05-02T10:27:54.525Z,2157.00
2023-05-02T10:28:54.487Z,2148.00
2023-05-02T10:29:57.366Z,2167.00
2023-05-02T10:30:54.463Z,2155.00
2023-05-02T10:31:54.500Z,2152.00
2023-05-02T10:32:54.505Z,2157.00
2023-05-02T10:33:54.399Z,2159.00
2023-05-02T10:34:54.367Z,2146.00
2023-05-02T10:35:54.352Z,2149.00
2023-05-02T10:36:54.339Z,2152.00
2023-05-02T10:37:54.332Z,2157.00
2023-05-02T10:38:54.311Z,2165.00
2023-05-02T10:39:54.290Z,2158.00
2023-05-02T10:40:54.278Z,2170.00
2023-05-02T10:41:54.255Z,2151.00
2023-05-02T10:43:01.866Z,2150.00
2023-05-02T10:43:54.210Z,2152.00
2023-05-02T10:44:55.876Z,2155.00
2023-05-02T10:45:54.192Z,2156.00
2023-05-02T10:46:54.196Z,2155.00
2023-05-02T10:47:54.886Z,2159.00
2023-05-02T10:48:54.146Z,2148.00
2023-05-02T10:49:58.905Z,2158.00
2023-05-02T10:50:54.093Z,2159.00
2023-05-02T10:51:54.082Z,2153.00
2023-05-02T10:52:54.058Z,2137.00
2023-05-02T10:53:59.373Z,2139.00
2023-05-02T10:54:54.011Z,2159.00
2023-05-02T10:55:54.037Z,2157.00
2023-05-02T10:56:54.069Z,2142.00
2023-05-02T10:57:54.119Z,2120.00
2023-05-02T10:58:54.179Z,2116.00
2023-05-02T10:59:54.227Z,2125.00
2023-05-02T11:00:54.301Z,2120.00
2023-05-02T11:01:54.300Z,2106.00
2023-05-02T11:02:54.402Z,2105.00
2023-05-02T11:03:54.351Z,2097.00
2023-05-02T11:04:54.370Z,2104.00
2023-05-02T11:05:54.437Z,2103.00
2023-05-02T11:06:54.488Z,2085.00
2023-05-02T11:07:54.539Z,2088.00
2023-05-02T11:08:54.578Z,2082.00
2023-05-02T11:09:54.617Z,2060.00
2023-05-02T11:10:54.688Z,2073.00
2023-05-02T11:11:54.731Z,2056.00
2023-05-02T11:12:54.788Z,2067.00
2023-05-02T11:13:54.841Z,2058.00
2023-05-02T11:14:54.877Z,2055.00
2023-05-02T11:15:54.911Z,2050.00
2023-05-02T11:16:55.132Z,2046.00
2023-05-02T11:17:55.016Z,2040.00
2023-05-02T11:18:54.992Z,2039.00
2023-05-02T11:19:55.004Z,2034.00
2023-05-02T11:20:55.032Z,2032.00
2023-05-02T11:21:55.056Z,2034.00
2023-05-02T11:22:55.220Z,2037.00
2023-05-02T11:23:55.137Z,2015.00
2023-05-02T11:24:55.115Z,2023.00
2023-05-02T11:25:55.213Z,2014.00
2023-05-02T11:26:55.249Z,2013.00
2023-05-02T11:27:55.283Z,2016.00
2023-05-02T11:28:55.357Z,2023.00
2023-05-02T11:29:55.399Z,2010.00
2023-05-02T11:30:56.685Z,2002.00
2023-05-02T11:31:55.593Z,1997.00
2023-05-02T11:32:55.578Z,1987.00
2023-05-02T11:33:55.618Z,2001.00
2023-05-02T11:34:55.668Z,2001.00
2023-05-02T11:35:55.722Z,1988.00
2023-05-02T11:36:55.758Z,1992.00
2023-05-02T11:37:55.758Z,1997.00
2023-05-02T11:38:55.752Z,1987.00
2023-05-02T11:39:55.772Z,1971.00
2023-05-02T11:40:55.739Z,1971.00
2023-05-02T11:41:55.747Z,1976.00
2023-05-02T11:42:55.772Z,1977.00
2023-05-02T11:43:55.775Z,1982.00
2023-05-02T11:44:55.772Z,1975.00
2023-05-02T11:45:55.787Z,1956.00
2023-05-02T11:46:55.764Z,1967.00
2023-05-02T11:47:55.752Z,1958.00
2023-05-02T11:48:55.768Z,1955.00
2023-05-02T11:49:55.742Z,1965.00
2023-05-02T11:50:55.749Z,1964.00
2023-05-02T11:51:55.747Z,1947.00
2023-05-02T11:52:55.731Z,1935.00
2023-05-02T11:53:55.718Z,1938.00
2023-05-02T11:54:55.731Z,1933.00
2023-05-02T11:55:55.715Z,1930.00
2023-05-02T11:56:55.722Z,1929.00
2023-05-02T11:57:55.681Z,1930.00
2023-05-02T11:58:55.687Z,1917.00
2023-05-02T11:59:55.683Z,1919.00
2023-05-02T12:00:55.682Z,1917.00
2023-05-02T12:01:55.687Z,1916.00
2023-05-02T12:02:55.767Z,1899.00
2023-05-02T12:03:55.700Z,1912.00
2023-05-02T12:04:55.673Z,1912.00
2023-05-02T12:05:55.683Z,1902.00
2023-05-02T12:06:55.691Z,1903.00
2023-05-02T12:07:55.656Z,1888.00
2023-05-02T12:08:55.695Z,1887.00
2023-05-02T12:09:55.648Z,1883.00
2023-05-02T12:10:55.634Z,1857.00
2023-05-02T12:11:55.634Z,1870.00
2023-05-02T12:12:55.631Z,1867.00
2023-05-02T12:13:55.625Z,1868.00
2023-05-02T12:14:55.633Z,1867.00
2023-05-02T12:15:55.732Z,1847.00
2023-05-02T12:16:55.587Z,1846.00